Terminal Aerodrome Forecast
Issued by NWS Cleveland, OH

Home | Current Version | Previous Version | Graphics & Text | Print | Product List | Glossary Off
Versions: 1 2 3 4 5 6 7 8 9 10 11 12 13 14 15 16 17 18

000
FTUS41 KCLE 181326 AAA
TAFCAK
TAF AMD
KCAK 181326Z 1813/1912 20010G20KT 3SM -SHRA OVC025 WS020/20045KT
      TEMPO 1813/1815 2SM SHRA BR OVC015
     FM181500 20015G35KT 3SM SHRA VCTS OVC025CB WS020/22045KT
     FM181800 20015G35KT P6SM OVC010
     FM182300 25015G35KT 2SM TSRA OVC003CB
      TEMPO 1900/1901 VRB30G45KT 1SM +TSRA OVC003CB
     FM190200 27020G35KT 3SM -SHRA BR OVC007
     FM190500 30020G40KT 3SM -SHRA BR OVC010
     FM190800 30020G40KT P6SM VCSH OVC015=

USA.gov is the U.S. government's official web portal to all federal, state and local government web resources and services.